Appleton, Arkansas
Current Conditions -  °F | °C
As of 7:53 AM on Monday 22 Dec 2014 (Local Time) from KRUE Reporting Station
Overcast Overcast  
Wind Chill: 45°   Ceiling: 1200
Heat Index: 48°   Visibility: 10mi
Dew Point: 45°   Wind: 6mph
Humidity: 89%   Direction: NA
Pressure: 29.68"   Gusts: NA
Location:  35.2384°N, 92.9429°W
Report Text: KRUE 221353Z AUTO VRB05KT 10SM OVC012 09/07 A2968 RMK AO2 SLP048 T00890072
Loading
Personal Weather Stations






























Interactive Weather Map New forecast layout! Learn more

10-Day Weather Forecast

Advertisements
Track Severe Weather on mobile